LIPX/VRN METAR and TAF weather

Enter ICAO airport designator
Station Type Date Time Source
LIPX METAR 2019/12/12 16:50 UTC NOAA

LIPX 121650Z 24006KT 200V270 6000 SCT010 BKN080 01/01 Q1004


Station Type Date Time Source
LIPX Decoded METAR 2019/12/12 16:50 UTC NOAA

Verona / Villafranca, Italy (LIPX) 45-23N 010-52E 68M
Dec 12, 2019 - 11:50 AM EST / 2019.12.12 1650 UTC
Wind: from the WSW (240 degrees) at 7 MPH (6 KT) (direction variable):0
Visibility: 3 mile(s):0
Sky conditions: mostly cloudy
Temperature: 33 F (1 C)
Windchill: 26 F (-3 C):1
Dew Point: 33 F (1 C)
Relative Humidity: 100%
Pressure (altimeter): 29.65 in. Hg (1004 hPa)
ob: LIPX 121650Z 24006KT 200V270 6000 SCT010 BKN080 01/01 Q1004
cycle: 17

Station Type Date Time Source
LIPX TAF 2014/04/22 15:24 UTC NOAA

TAF LIPX 221400Z 2215/2324 VRB05KT 9999 SCT030 SCT070
TEMPO 2215/2218 SCT025CB SCT080 PROB30
TEMPO 2215/2218 TS

Example: see airport list